Pagrindinis puslapis
METAR-TAF:

METAR-TAF

Oro uostai :

Salala, Omanas

platuma: 17-02N, ilguma: 054-05E, Aukštis: 20 m

Dabartinis oras

Ataskaita buvo paskelbta 29 minutes, ne 20:50 UTC
Vėjas 3 kt iš Pietų
Temperatūra 27°C
Drėgmė 89%
Slėgis 1005 hPa
Matomumas 10 km arba daugiau
Su prošvaistėmis ne aukštis 2500 ft

METAR: OOSA 222050Z 18003KT 9999 BKN025 27/25 Q1005 NOSIG

Laikas: 01:19 (21:19 UTC)

Prognozė

Ataskaita buvo paskelbta 3 valandos ir 39 minutes, ne 17:40 UTC
Prognozė galioja nuo 22 metu 18 UTC su 24 metu 00 UTC
Vėjas 3 kt nuo kintamojo kryptimis
Matomumas 10 km arba daugiau
Išsisklaidę debesys ne aukštis 2500 ft
Tapsmas
nuo 23 metu 06 UTC su 23 metu 08 UTC
Vėjas 12 kt iš Pietų
Tapsmas
nuo 23 metu 16 UTC su 23 metu 17 UTC
Vėjas 3 kt nuo kintamojo kryptimis

TAF: OOSA 221740Z 2218/2400 VRB03KT 9999 SCT025 BECMG 2306/2308 19012KT BECMG 2316/2317 VRB03KT

Orai ataskaitas ir orų prognozės (METAR, TAF).

turimą stotys yra geltonos ir raudonos taškus žemėlapyje.

Perkelti pele per norėdami pamatyti stoties vardą.

Tada spustelėkite, norėdami matyti oro stebėjimo ir prognozės.

Norėdami pakeisti žemėlapį: spustelėkite ant žalios mygtukų su juodo kryžiaus žemyn,; žalią mygtuką su brūkšneliu, jei norite nutolinti; arba žalių rodyklių gretimoms žemėlapius.


METAR-TAF: